sensor_id;sensor_type;location;lat;lon;timestamp;temperature;humidity
1361;DHT22;674;45.552;-122.600;2023-02-11T00:01:36;11.60;1.00
1361;DHT22;674;45.552;-122.600;2023-02-11T00:04:05;11.60;1.00
1361;DHT22;674;45.552;-122.600;2023-02-11T00:06:35;11.50;1.00
1361;DHT22;674;45.552;-122.600;2023-02-11T00:09:04;11.40;1.00
1361;DHT22;674;45.552;-122.600;2023-02-11T00:11:33;11.50;1.00
1361;DHT22;674;45.552;-122.600;2023-02-11T00:14:04;11.50;1.00
1361;DHT22;674;45.552;-122.600;2023-02-11T00:16:33;11.60;1.00
1361;DHT22;674;45.552;-122.600;2023-02-11T00:19:02;11.60;1.00
1361;DHT22;674;45.552;-122.600;2023-02-11T00:21:33;11.50;1.00
1361;DHT22;674;45.552;-122.600;2023-02-11T00:24:02;11.40;1.00
1361;DHT22;674;45.552;-122.600;2023-02-11T00:26:32;11.30;1.00
1361;DHT22;674;45.552;-122.600;2023-02-11T00:29:02;11.30;1.00
1361;DHT22;674;45.552;-122.600;2023-02-11T00:31:31;11.20;1.00
1361;DHT22;674;45.552;-122.600;2023-02-11T00:34:00;11.20;1.00
1361;DHT22;674;45.552;-122.600;2023-02-11T00:36:29;11.10;1.00
1361;DHT22;674;45.552;-122.600;2023-02-11T00:38:58;11.10;1.00
1361;DHT22;674;45.552;-122.600;2023-02-11T00:41:26;11.00;1.00
1361;DHT22;674;45.552;-122.600;2023-02-11T00:43:55;11.00;1.00
1361;DHT22;674;45.552;-122.600;2023-02-11T00:46:23;10.90;1.00
1361;DHT22;674;45.552;-122.600;2023-02-11T00:48:52;10.80;1.00
1361;DHT22;674;45.552;-122.600;2023-02-11T00:51:26;10.80;1.00
1361;DHT22;674;45.552;-122.600;2023-02-11T00:53:54;10.70;1.00
1361;DHT22;674;45.552;-122.600;2023-02-11T00:56:23;10.90;1.00
1361;DHT22;674;45.552;-122.600;2023-02-11T00:58:51;10.70;1.00
1361;DHT22;674;45.552;-122.600;2023-02-11T01:01:21;10.70;1.00
1361;DHT22;674;45.552;-122.600;2023-02-11T01:03:49;10.60;1.00
1361;DHT22;674;45.552;-122.600;2023-02-11T01:06:18;10.60;1.00
1361;DHT22;674;45.552;-122.600;2023-02-11T01:08:46;10.50;1.00
1361;DHT22;674;45.552;-122.600;2023-02-11T01:11:18;10.40;1.00
1361;DHT22;674;45.552;-122.600;2023-02-11T01:13:48;10.30;1.00
1361;DHT22;674;45.552;-122.600;2023-02-11T01:16:17;10.20;1.00
1361;DHT22;674;45.552;-122.600;2023-02-11T01:18:46;10.20;1.00
1361;DHT22;674;45.552;-122.600;2023-02-11T01:21:15;10.10;1.00
1361;DHT22;674;45.552;-122.600;2023-02-11T01:23:43;10.00;1.00
1361;DHT22;674;45.552;-122.600;2023-02-11T01:26:12;9.90;1.00
1361;DHT22;674;45.552;-122.600;2023-02-11T01:28:41;9.80;1.00
1361;DHT22;674;45.552;-122.600;2023-02-11T01:31:09;9.80;1.00
1361;DHT22;674;45.552;-122.600;2023-02-11T01:33:38;9.70;1.00
1361;DHT22;674;45.552;-122.600;2023-02-11T01:36:07;9.60;1.00
1361;DHT22;674;45.552;-122.600;2023-02-11T01:38:36;9.60;1.00
1361;DHT22;674;45.552;-122.600;2023-02-11T01:41:10;9.60;1.00
1361;DHT22;674;45.552;-122.600;2023-02-11T01:43:44;9.40;1.00
1361;DHT22;674;45.552;-122.600;2023-02-11T01:49:08;9.40;1.00
1361;DHT22;674;45.552;-122.600;2023-02-11T01:51:51;9.30;1.00
1361;DHT22;674;45.552;-122.600;2023-02-11T01:54:24;9.30;1.00
1361;DHT22;674;45.552;-122.600;2023-02-11T01:57:14;9.30;1.00
1361;DHT22;674;45.552;-122.600;2023-02-11T02:00:06;9.30;1.00
1361;DHT22;674;45.552;-122.600;2023-02-11T02:02:51;9.30;1.00
1361;DHT22;674;45.552;-122.600;2023-02-11T02:08:16;9.30;1.00
1361;DHT22;674;45.552;-122.600;2023-02-11T02:10:49;9.30;1.00
1361;DHT22;674;45.552;-122.600;2023-02-11T02:13:22;9.30;1.00
1361;DHT22;674;45.552;-122.600;2023-02-11T02:15:54;9.30;1.00
1361;DHT22;674;45.552;-122.600;2023-02-11T02:30:34;9.20;1.00
1361;DHT22;674;45.552;-122.600;2023-02-11T02:33:55;9.20;1.00
1361;DHT22;674;45.552;-122.600;2023-02-11T02:39:04;9.10;1.00
1361;DHT22;674;45.552;-122.600;2023-02-11T02:41:35;9.20;1.00
1361;DHT22;674;45.552;-122.600;2023-02-11T02:44:06;9.10;1.00
1361;DHT22;674;45.552;-122.600;2023-02-11T02:46:35;9.10;1.00
1361;DHT22;674;45.552;-122.600;2023-02-11T02:49:09;9.10;1.00
1361;DHT22;674;45.552;-122.600;2023-02-11T02:52:03;9.00;1.00
1361;DHT22;674;45.552;-122.600;2023-02-11T02:58:24;8.90;1.00
1361;DHT22;674;45.552;-122.600;2023-02-11T03:09:25;8.70;1.00
1361;DHT22;674;45.552;-122.600;2023-02-11T03:11:55;8.70;1.00
1361;DHT22;674;45.552;-122.600;2023-02-11T03:14:25;8.70;1.00
1361;DHT22;674;45.552;-122.600;2023-02-11T03:16:57;8.60;1.00
1361;DHT22;674;45.552;-122.600;2023-02-11T03:19:37;8.50;1.00
1361;DHT22;674;45.552;-122.600;2023-02-11T03:22:12;8.50;1.00
1361;DHT22;674;45.552;-122.600;2023-02-11T03:24:44;8.50;1.00
1361;DHT22;674;45.552;-122.600;2023-02-11T03:27:38;8.40;1.00
1361;DHT22;674;45.552;-122.600;2023-02-11T03:30:21;8.30;3.40
1361;DHT22;674;45.552;-122.600;2023-02-11T03:32:57;8.30;4.30
1361;DHT22;674;45.552;-122.600;2023-02-11T03:35:52;8.20;5.30
1361;DHT22;674;45.552;-122.600;2023-02-11T03:38:34;8.20;9.20
1361;DHT22;674;45.552;-122.600;2023-02-11T03:41:06;8.10;13.80
1361;DHT22;674;45.552;-122.600;2023-02-11T03:43:41;8.10;15.00
1361;DHT22;674;45.552;-122.600;2023-02-11T03:46:12;7.90;20.50
1361;DHT22;674;45.552;-122.600;2023-02-11T03:48:46;7.90;26.90
1361;DHT22;674;45.552;-122.600;2023-02-11T03:51:16;7.60;31.30
1361;DHT22;674;45.552;-122.600;2023-02-11T03:53:49;7.70;41.60
1361;DHT22;674;45.552;-122.600;2023-02-11T03:56:23;7.60;48.60
1361;DHT22;674;45.552;-122.600;2023-02-11T03:58:53;7.70;49.50
1361;DHT22;674;45.552;-122.600;2023-02-11T04:01:22;7.70;51.10
1361;DHT22;674;45.552;-122.600;2023-02-11T04:03:51;7.60;52.80
1361;DHT22;674;45.552;-122.600;2023-02-11T04:06:19;7.60;55.50
1361;DHT22;674;45.552;-122.600;2023-02-11T04:08:48;7.50;60.60
1361;DHT22;674;45.552;-122.600;2023-02-11T04:11:16;7.60;61.80
1361;DHT22;674;45.552;-122.600;2023-02-11T04:13:45;7.50;61.00
1361;DHT22;674;45.552;-122.600;2023-02-11T04:16:13;7.50;66.30
1361;DHT22;674;45.552;-122.600;2023-02-11T04:18:42;7.30;67.70
1361;DHT22;674;45.552;-122.600;2023-02-11T04:21:11;7.40;70.40
1361;DHT22;674;45.552;-122.600;2023-02-11T04:23:39;7.20;71.70
1361;DHT22;674;45.552;-122.600;2023-02-11T04:26:08;7.30;76.40
1361;DHT22;674;45.552;-122.600;2023-02-11T04:28:36;7.20;77.70
1361;DHT22;674;45.552;-122.600;2023-02-11T04:31:05;7.10;88.90
1361;DHT22;674;45.552;-122.600;2023-02-11T04:33:33;7.50;90.10
1361;DHT22;674;45.552;-122.600;2023-02-11T04:36:03;7.10;89.70
1361;DHT22;674;45.552;-122.600;2023-02-11T04:38:31;7.10;91.50
1361;DHT22;674;45.552;-122.600;2023-02-11T04:41:00;7.20;92.70
1361;DHT22;674;45.552;-122.600;2023-02-11T04:43:28;7.00;94.00
1361;DHT22;674;45.552;-122.600;2023-02-11T04:45:57;7.00;96.00
1361;DHT22;674;45.552;-122.600;2023-02-11T04:48:26;7.00;97.50
1361;DHT22;674;45.552;-122.600;2023-02-11T04:50:54;7.00;97.40
1361;DHT22;674;45.552;-122.600;2023-02-11T04:53:23;6.90;98.10
1361;DHT22;674;45.552;-122.600;2023-02-11T04:55:51;6.90;99.60
1361;DHT22;674;45.552;-122.600;2023-02-11T04:58:20;6.90;99.90
1361;DHT22;674;45.552;-122.600;2023-02-11T05:00:48;6.90;99.90
1361;DHT22;674;45.552;-122.600;2023-02-11T05:03:17;6.80;99.90
1361;DHT22;674;45.552;-122.600;2023-02-11T05:05:45;6.80;99.90
1361;DHT22;674;45.552;-122.600;2023-02-11T05:08:14;6.80;99.90
1361;DHT22;674;45.552;-122.600;2023-02-11T05:10:45;6.70;99.90
1361;DHT22;674;45.552;-122.600;2023-02-11T05:13:15;6.90;99.90
1361;DHT22;674;45.552;-122.600;2023-02-11T05:15:43;6.80;99.90
1361;DHT22;674;45.552;-122.600;2023-02-11T05:18:12;6.80;99.90
1361;DHT22;674;45.552;-122.600;2023-02-11T05:20:42;6.70;99.90
1361;DHT22;674;45.552;-122.600;2023-02-11T05:23:11;6.70;99.90
1361;DHT22;674;45.552;-122.600;2023-02-11T05:25:39;6.70;99.90
1361;DHT22;674;45.552;-122.600;2023-02-11T05:28:08;6.70;99.90
1361;DHT22;674;45.552;-122.600;2023-02-11T05:30:39;6.60;99.90
1361;DHT22;674;45.552;-122.600;2023-02-11T05:33:07;6.60;99.90
1361;DHT22;674;45.552;-122.600;2023-02-11T05:35:36;6.60;99.90
1361;DHT22;674;45.552;-122.600;2023-02-11T05:38:04;6.60;99.90
1361;DHT22;674;45.552;-122.600;2023-02-11T05:40:33;6.60;99.90
1361;DHT22;674;45.552;-122.600;2023-02-11T05:43:01;6.50;99.90
1361;DHT22;674;45.552;-122.600;2023-02-11T05:45:29;6.50;99.90
1361;DHT22;674;45.552;-122.600;2023-02-11T05:47:58;6.50;99.90
1361;DHT22;674;45.552;-122.600;2023-02-11T05:50:27;6.40;99.90
1361;DHT22;674;45.552;-122.600;2023-02-11T05:52:55;6.50;99.90
1361;DHT22;674;45.552;-122.600;2023-02-11T05:55:24;6.40;99.90
1361;DHT22;674;45.552;-122.600;2023-02-11T05:57:52;6.30;99.90
1361;DHT22;674;45.552;-122.600;2023-02-11T06:00:21;6.30;99.90
1361;DHT22;674;45.552;-122.600;2023-02-11T06:02:49;6.50;99.90
1361;DHT22;674;45.552;-122.600;2023-02-11T06:05:18;6.30;99.90
1361;DHT22;674;45.552;-122.600;2023-02-11T06:07:46;6.30;99.90
1361;DHT22;674;45.552;-122.600;2023-02-11T06:10:15;6.30;99.90
1361;DHT22;674;45.552;-122.600;2023-02-11T06:12:43;6.20;99.90
1361;DHT22;674;45.552;-122.600;2023-02-11T06:15:12;6.30;99.90
1361;DHT22;674;45.552;-122.600;2023-02-11T06:17:40;6.20;99.90
1361;DHT22;674;45.552;-122.600;2023-02-11T06:20:10;6.10;99.90
1361;DHT22;674;45.552;-122.600;2023-02-11T06:22:39;6.10;99.90
1361;DHT22;674;45.552;-122.600;2023-02-11T06:25:08;6.10;99.90
1361;DHT22;674;45.552;-122.600;2023-02-11T06:27:38;6.00;99.90
1361;DHT22;674;45.552;-122.600;2023-02-11T06:30:07;6.30;99.90
1361;DHT22;674;45.552;-122.600;2023-02-11T06:32:36;6.00;99.90
1361;DHT22;674;45.552;-122.600;2023-02-11T06:35:12;6.10;99.90
1361;DHT22;674;45.552;-122.600;2023-02-11T06:37:41;5.80;99.90
1361;DHT22;674;45.552;-122.600;2023-02-11T06:40:11;6.00;99.90
1361;DHT22;674;45.552;-122.600;2023-02-11T06:42:39;6.30;99.90
1361;DHT22;674;45.552;-122.600;2023-02-11T06:45:08;5.90;99.90
1361;DHT22;674;45.552;-122.600;2023-02-11T06:47:38;5.90;99.90
1361;DHT22;674;45.552;-122.600;2023-02-11T06:50:11;6.00;99.90
1361;DHT22;674;45.552;-122.600;2023-02-11T06:52:40;6.00;99.90
1361;DHT22;674;45.552;-122.600;2023-02-11T06:55:08;5.80;99.90
1361;DHT22;674;45.552;-122.600;2023-02-11T06:57:37;5.80;99.90
1361;DHT22;674;45.552;-122.600;2023-02-11T07:00:06;6.00;99.90
1361;DHT22;674;45.552;-122.600;2023-02-11T07:02:35;5.70;99.90
1361;DHT22;674;45.552;-122.600;2023-02-11T07:05:05;5.90;99.90
1361;DHT22;674;45.552;-122.600;2023-02-11T07:07:34;5.80;99.90
1361;DHT22;674;45.552;-122.600;2023-02-11T07:10:03;5.90;99.90
1361;DHT22;674;45.552;-122.600;2023-02-11T07:12:32;5.70;99.90
1361;DHT22;674;45.552;-122.600;2023-02-11T07:15:01;5.70;99.90
1361;DHT22;674;45.552;-122.600;2023-02-11T07:17:29;5.70;99.90
1361;DHT22;674;45.552;-122.600;2023-02-11T07:19:58;5.60;99.90
1361;DHT22;674;45.552;-122.600;2023-02-11T07:22:26;5.60;99.90
1361;DHT22;674;45.552;-122.600;2023-02-11T07:24:55;5.70;99.90
1361;DHT22;674;45.552;-122.600;2023-02-11T07:27:23;5.60;99.90
1361;DHT22;674;45.552;-122.600;2023-02-11T07:29:51;5.60;99.90
1361;DHT22;674;45.552;-122.600;2023-02-11T07:32:20;5.50;99.90
1361;DHT22;674;45.552;-122.600;2023-02-11T07:34:48;5.50;99.90
1361;DHT22;674;45.552;-122.600;2023-02-11T07:37:17;5.50;99.90
1361;DHT22;674;45.552;-122.600;2023-02-11T07:39:45;5.40;99.90
1361;DHT22;674;45.552;-122.600;2023-02-11T07:42:14;5.70;99.90
1361;DHT22;674;45.552;-122.600;2023-02-11T07:44:42;5.50;99.90
1361;DHT22;674;45.552;-122.600;2023-02-11T07:47:11;5.60;99.90
1361;DHT22;674;45.552;-122.600;2023-02-11T07:49:39;5.70;99.90
1361;DHT22;674;45.552;-122.600;2023-02-11T07:52:08;5.40;99.90
1361;DHT22;674;45.552;-122.600;2023-02-11T07:54:36;5.60;99.90
1361;DHT22;674;45.552;-122.600;2023-02-11T07:57:04;5.60;99.90
1361;DHT22;674;45.552;-122.600;2023-02-11T07:59:33;5.60;99.90
1361;DHT22;674;45.552;-122.600;2023-02-11T08:02:01;5.30;99.90
1361;DHT22;674;45.552;-122.600;2023-02-11T08:04:30;5.30;99.90
1361;DHT22;674;45.552;-122.600;2023-02-11T08:06:58;5.30;99.90
1361;DHT22;674;45.552;-122.600;2023-02-11T08:09:27;5.60;99.90
1361;DHT22;674;45.552;-122.600;2023-02-11T08:11:55;5.30;99.90
1361;DHT22;674;45.552;-122.600;2023-02-11T08:14:24;5.20;99.90
1361;DHT22;674;45.552;-122.600;2023-02-11T08:16:54;5.20;99.90
1361;DHT22;674;45.552;-122.600;2023-02-11T08:19:22;5.20;99.90
1361;DHT22;674;45.552;-122.600;2023-02-11T08:21:54;5.10;99.90
1361;DHT22;674;45.552;-122.600;2023-02-11T08:24:23;5.30;99.90
1361;DHT22;674;45.552;-122.600;2023-02-11T08:26:52;5.30;99.90
1361;DHT22;674;45.552;-122.600;2023-02-11T08:29:20;5.20;99.90
1361;DHT22;674;45.552;-122.600;2023-02-11T08:31:48;5.00;99.90
1361;DHT22;674;45.552;-122.600;2023-02-11T08:34:17;5.00;99.90
1361;DHT22;674;45.552;-122.600;2023-02-11T08:36:47;5.30;99.90
1361;DHT22;674;45.552;-122.600;2023-02-11T08:39:17;5.00;99.90
1361;DHT22;674;45.552;-122.600;2023-02-11T08:41:49;4.90;99.90
1361;DHT22;674;45.552;-122.600;2023-02-11T08:44:18;4.80;99.90
1361;DHT22;674;45.552;-122.600;2023-02-11T08:46:48;4.80;99.90
1361;DHT22;674;45.552;-122.600;2023-02-11T08:49:16;5.10;99.90
1361;DHT22;674;45.552;-122.600;2023-02-11T08:51:45;5.00;99.90
1361;DHT22;674;45.552;-122.600;2023-02-11T08:54:15;4.70;99.90
1361;DHT22;674;45.552;-122.600;2023-02-11T08:56:44;4.70;99.90
1361;DHT22;674;45.552;-122.600;2023-02-11T08:59:14;4.90;99.90
1361;DHT22;674;45.552;-122.600;2023-02-11T09:01:44;4.60;99.90
1361;DHT22;674;45.552;-122.600;2023-02-11T09:04:14;4.40;99.90
1361;DHT22;674;45.552;-122.600;2023-02-11T09:06:43;4.50;99.90
1361;DHT22;674;45.552;-122.600;2023-02-11T09:09:12;4.40;99.90
1361;DHT22;674;45.552;-122.600;2023-02-11T09:11:42;4.50;99.90
1361;DHT22;674;45.552;-122.600;2023-02-11T09:14:21;4.40;99.90
1361;DHT22;674;45.552;-122.600;2023-02-11T09:16:50;4.40;99.90
1361;DHT22;674;45.552;-122.600;2023-02-11T09:19:20;4.70;99.90
1361;DHT22;674;45.552;-122.600;2023-02-11T09:21:50;4.30;99.90
1361;DHT22;674;45.552;-122.600;2023-02-11T09:24:18;4.30;99.90
1361;DHT22;674;45.552;-122.600;2023-02-11T09:26:47;4.20;99.90
1361;DHT22;674;45.552;-122.600;2023-02-11T09:29:16;4.30;99.90
1361;DHT22;674;45.552;-122.600;2023-02-11T09:31:44;4.10;99.90
1361;DHT22;674;45.552;-122.600;2023-02-11T09:34:13;4.10;99.90
1361;DHT22;674;45.552;-122.600;2023-02-11T09:36:42;4.10;99.90
1361;DHT22;674;45.552;-122.600;2023-02-11T09:39:15;4.10;99.90
1361;DHT22;674;45.552;-122.600;2023-02-11T09:41:58;4.10;99.90
1361;DHT22;674;45.552;-122.600;2023-02-11T09:44:31;3.90;99.90
1361;DHT22;674;45.552;-122.600;2023-02-11T09:47:06;4.10;99.90
1361;DHT22;674;45.552;-122.600;2023-02-11T09:49:44;4.10;99.90
1361;DHT22;674;45.552;-122.600;2023-02-11T09:55:08;4.10;99.90
1361;DHT22;674;45.552;-122.600;2023-02-11T09:57:39;4.00;99.90
1361;DHT22;674;45.552;-122.600;2023-02-11T10:08:30;3.90;99.90
1361;DHT22;674;45.552;-122.600;2023-02-11T10:11:15;3.90;99.90
1361;DHT22;674;45.552;-122.600;2023-02-11T10:14:17;3.80;99.90
1361;DHT22;674;45.552;-122.600;2023-02-11T10:24:57;3.60;99.90
1361;DHT22;674;45.552;-122.600;2023-02-11T10:27:34;3.70;99.90
1361;DHT22;674;45.552;-122.600;2023-02-11T10:30:15;4.10;99.90
1361;DHT22;674;45.552;-122.600;2023-02-11T10:35:21;3.60;99.90
1361;DHT22;674;45.552;-122.600;2023-02-11T10:37:50;3.60;99.90
1361;DHT22;674;45.552;-122.600;2023-02-11T10:40:22;3.60;99.90
1361;DHT22;674;45.552;-122.600;2023-02-11T10:43:18;3.70;99.90
1361;DHT22;674;45.552;-122.600;2023-02-11T10:45:52;3.60;99.90
1361;DHT22;674;45.552;-122.600;2023-02-11T10:51:21;3.60;99.90
1361;DHT22;674;45.552;-122.600;2023-02-11T10:56:48;3.60;99.90
1361;DHT22;674;45.552;-122.600;2023-02-11T10:59:26;3.60;99.90
1361;DHT22;674;45.552;-122.600;2023-02-11T11:02:01;3.60;99.90
1361;DHT22;674;45.552;-122.600;2023-02-11T11:04:42;3.60;99.90
1361;DHT22;674;45.552;-122.600;2023-02-11T11:07:23;3.50;99.90
1361;DHT22;674;45.552;-122.600;2023-02-11T11:10:04;3.80;99.90
1361;DHT22;674;45.552;-122.600;2023-02-11T11:12:55;3.80;99.90
1361;DHT22;674;45.552;-122.600;2023-02-11T11:15:25;3.60;99.90
1361;DHT22;674;45.552;-122.600;2023-02-11T11:18:17;3.70;99.90
1361;DHT22;674;45.552;-122.600;2023-02-11T11:21:02;3.50;99.90
1361;DHT22;674;45.552;-122.600;2023-02-11T11:23:35;3.70;99.90
1361;DHT22;674;45.552;-122.600;2023-02-11T11:26:10;3.60;99.90
1361;DHT22;674;45.552;-122.600;2023-02-11T11:28:52;3.40;99.90
1361;DHT22;674;45.552;-122.600;2023-02-11T11:31:25;3.20;99.90
1361;DHT22;674;45.552;-122.600;2023-02-11T11:33:57;3.30;99.90
1361;DHT22;674;45.552;-122.600;2023-02-11T11:36:39;3.40;99.90
1361;DHT22;674;45.552;-122.600;2023-02-11T11:39:26;3.30;99.90
1361;DHT22;674;45.552;-122.600;2023-02-11T11:41:57;3.30;99.90
1361;DHT22;674;45.552;-122.600;2023-02-11T11:44:34;3.30;99.90
1361;DHT22;674;45.552;-122.600;2023-02-11T11:49:51;3.50;99.90
1361;DHT22;674;45.552;-122.600;2023-02-11T11:55:46;3.30;99.90
1361;DHT22;674;45.552;-122.600;2023-02-11T11:58:19;3.00;99.90
1361;DHT22;674;45.552;-122.600;2023-02-11T12:18:46;2.90;99.90
1361;DHT22;674;45.552;-122.600;2023-02-11T12:24:30;2.40;99.90
1361;DHT22;674;45.552;-122.600;2023-02-11T12:27:52;2.80;99.90
1361;DHT22;674;45.552;-122.600;2023-02-11T12:38:25;2.60;99.90
1361;DHT22;674;45.552;-122.600;2023-02-11T12:44:38;2.50;99.90
1361;DHT22;674;45.552;-122.600;2023-02-11T12:52:32;2.70;99.90
1361;DHT22;674;45.552;-122.600;2023-02-11T12:55:21;2.70;99.90
1361;DHT22;674;45.552;-122.600;2023-02-11T12:57:52;2.70;99.90
1361;DHT22;674;45.552;-122.600;2023-02-11T13:00:49;2.70;99.90
1361;DHT22;674;45.552;-122.600;2023-02-11T13:03:46;2.90;99.90
1361;DHT22;674;45.552;-122.600;2023-02-11T13:06:21;3.00;99.90
1361;DHT22;674;45.552;-122.600;2023-02-11T13:08:56;3.30;99.90
1361;DHT22;674;45.552;-122.600;2023-02-11T13:11:31;3.30;99.90
1361;DHT22;674;45.552;-122.600;2023-02-11T13:16:44;3.50;99.90
1361;DHT22;674;45.552;-122.600;2023-02-11T13:24:42;3.80;99.90
1361;DHT22;674;45.552;-122.600;2023-02-11T13:27:47;3.80;99.90
1361;DHT22;674;45.552;-122.600;2023-02-11T13:30:33;3.80;99.90
1361;DHT22;674;45.552;-122.600;2023-02-11T13:33:20;3.90;99.90
1361;DHT22;674;45.552;-122.600;2023-02-11T13:38:30;4.00;99.90
1361;DHT22;674;45.552;-122.600;2023-02-11T13:41:02;4.30;99.90
1361;DHT22;674;45.552;-122.600;2023-02-11T13:43:35;4.20;99.90
1361;DHT22;674;45.552;-122.600;2023-02-11T13:46:12;4.20;99.90
1361;DHT22;674;45.552;-122.600;2023-02-11T13:48:50;4.20;99.90
1361;DHT22;674;45.552;-122.600;2023-02-11T13:51:38;4.20;99.90
1361;DHT22;674;45.552;-122.600;2023-02-11T13:54:17;4.30;99.90
1361;DHT22;674;45.552;-122.600;2023-02-11T14:08:17;4.40;99.90
1361;DHT22;674;45.552;-122.600;2023-02-11T14:11:08;4.30;99.90
1361;DHT22;674;45.552;-122.600;2023-02-11T14:19:37;4.40;99.90
1361;DHT22;674;45.552;-122.600;2023-02-11T14:22:12;4.70;99.90
1361;DHT22;674;45.552;-122.600;2023-02-11T14:33:10;4.60;99.90
1361;DHT22;674;45.552;-122.600;2023-02-11T14:41:25;4.30;99.90
1361;DHT22;674;45.552;-122.600;2023-02-11T14:44:00;4.70;99.90
1361;DHT22;674;45.552;-122.600;2023-02-11T14:46:31;4.70;99.90
1361;DHT22;674;45.552;-122.600;2023-02-11T14:49:02;4.40;99.90
1361;DHT22;674;45.552;-122.600;2023-02-11T14:51:38;4.40;99.90
1361;DHT22;674;45.552;-122.600;2023-02-11T14:54:15;4.40;99.90
1361;DHT22;674;45.552;-122.600;2023-02-11T14:56:45;4.60;99.90
1361;DHT22;674;45.552;-122.600;2023-02-11T14:59:21;4.70;99.90
1361;DHT22;674;45.552;-122.600;2023-02-11T15:01:52;4.60;99.90
1361;DHT22;674;45.552;-122.600;2023-02-11T15:04:32;4.50;99.90
1361;DHT22;674;45.552;-122.600;2023-02-11T15:07:06;4.70;99.90
1361;DHT22;674;45.552;-122.600;2023-02-11T15:09:46;4.60;99.90
1361;DHT22;674;45.552;-122.600;2023-02-11T15:14:47;4.70;99.90
1361;DHT22;674;45.552;-122.600;2023-02-11T15:17:25;4.40;99.90
1361;DHT22;674;45.552;-122.600;2023-02-11T15:19:56;4.50;99.90
1361;DHT22;674;45.552;-122.600;2023-02-11T15:22:31;4.10;99.90
1361;DHT22;674;45.552;-122.600;2023-02-11T15:25:11;4.30;99.90
1361;DHT22;674;45.552;-122.600;2023-02-11T15:27:46;4.10;99.90
1361;DHT22;674;45.552;-122.600;2023-02-11T15:32:58;4.20;99.90
1361;DHT22;674;45.552;-122.600;2023-02-11T15:35:52;4.00;99.90
1361;DHT22;674;45.552;-122.600;2023-02-11T15:38:21;4.10;99.90
1361;DHT22;674;45.552;-122.600;2023-02-11T15:40:59;4.10;99.90
1361;DHT22;674;45.552;-122.600;2023-02-11T15:46:21;4.10;99.90
1361;DHT22;674;45.552;-122.600;2023-02-11T15:48:52;4.20;99.90
1361;DHT22;674;45.552;-122.600;2023-02-11T15:51:23;4.10;99.90
1361;DHT22;674;45.552;-122.600;2023-02-11T15:53:58;4.10;99.90
1361;DHT22;674;45.552;-122.600;2023-02-11T15:56:39;4.40;99.90
1361;DHT22;674;45.552;-122.600;2023-02-11T16:02:19;4.40;99.90
1361;DHT22;674;45.552;-122.600;2023-02-11T16:04:52;4.40;99.90
1361;DHT22;674;45.552;-122.600;2023-02-11T16:07:57;4.50;99.90
1361;DHT22;674;45.552;-122.600;2023-02-11T16:10:35;4.90;99.90
1361;DHT22;674;45.552;-122.600;2023-02-11T16:13:17;4.50;99.90
1361;DHT22;674;45.552;-122.600;2023-02-11T16:16:03;4.90;99.90
1361;DHT22;674;45.552;-122.600;2023-02-11T16:18:37;4.90;99.90
1361;DHT22;674;45.552;-122.600;2023-02-11T16:21:15;5.00;99.90
1361;DHT22;674;45.552;-122.600;2023-02-11T16:23:55;5.10;99.90
1361;DHT22;674;45.552;-122.600;2023-02-11T16:29:06;5.70;99.90
1361;DHT22;674;45.552;-122.600;2023-02-11T16:31:39;5.50;99.90
1361;DHT22;674;45.552;-122.600;2023-02-11T16:34:16;5.80;99.90
1361;DHT22;674;45.552;-122.600;2023-02-11T16:36:46;5.90;99.90
1361;DHT22;674;45.552;-122.600;2023-02-11T16:39:16;5.80;99.90
1361;DHT22;674;45.552;-122.600;2023-02-11T16:41:45;5.90;99.90
1361;DHT22;674;45.552;-122.600;2023-02-11T16:44:13;6.00;99.40
1361;DHT22;674;45.552;-122.600;2023-02-11T16:46:42;6.10;96.60
1361;DHT22;674;45.552;-122.600;2023-02-11T16:51:54;6.20;72.30
1361;DHT22;674;45.552;-122.600;2023-02-11T16:54:23;6.30;62.50
1361;DHT22;674;45.552;-122.600;2023-02-11T16:56:52;6.40;61.70
1361;DHT22;674;45.552;-122.600;2023-02-11T16:59:20;6.60;47.30
1361;DHT22;674;45.552;-122.600;2023-02-11T17:01:50;6.60;36.40
1361;DHT22;674;45.552;-122.600;2023-02-11T17:04:22;6.90;26.60
1361;DHT22;674;45.552;-122.600;2023-02-11T17:06:52;6.60;16.60
1361;DHT22;674;45.552;-122.600;2023-02-11T17:09:25;6.90;15.50
1361;DHT22;674;45.552;-122.600;2023-02-11T17:11:57;6.80;5.70
1361;DHT22;674;45.552;-122.600;2023-02-11T17:14:25;6.90;10.60
1361;DHT22;674;45.552;-122.600;2023-02-11T17:16:54;6.70;9.70
1361;DHT22;674;45.552;-122.600;2023-02-11T17:19:22;6.80;13.00
1361;DHT22;674;45.552;-122.600;2023-02-11T17:21:52;7.00;8.20
1361;DHT22;674;45.552;-122.600;2023-02-11T17:24:21;6.90;1.00
1361;DHT22;674;45.552;-122.600;2023-02-11T17:26:50;7.00;1.00
1361;DHT22;674;45.552;-122.600;2023-02-11T17:29:21;6.80;1.00
1361;DHT22;674;45.552;-122.600;2023-02-11T17:31:51;6.90;1.00
1361;DHT22;674;45.552;-122.600;2023-02-11T17:34:20;6.60;1.00
1361;DHT22;674;45.552;-122.600;2023-02-11T17:36:49;6.70;1.00
1361;DHT22;674;45.552;-122.600;2023-02-11T17:39:18;6.90;1.00
1361;DHT22;674;45.552;-122.600;2023-02-11T17:41:47;6.80;1.00
1361;DHT22;674;45.552;-122.600;2023-02-11T17:44:16;6.90;1.00
1361;DHT22;674;45.552;-122.600;2023-02-11T17:46:45;6.70;1.00
1361;DHT22;674;45.552;-122.600;2023-02-11T17:49:13;6.80;1.00
1361;DHT22;674;45.552;-122.600;2023-02-11T17:51:42;6.80;1.00
1361;DHT22;674;45.552;-122.600;2023-02-11T17:54:14;6.60;1.00
1361;DHT22;674;45.552;-122.600;2023-02-11T17:56:44;6.60;1.00
1361;DHT22;674;45.552;-122.600;2023-02-11T17:59:16;6.90;1.00
1361;DHT22;674;45.552;-122.600;2023-02-11T18:01:45;7.10;1.00
1361;DHT22;674;45.552;-122.600;2023-02-11T18:04:17;7.00;1.00
1361;DHT22;674;45.552;-122.600;2023-02-11T18:06:46;7.00;1.00
1361;DHT22;674;45.552;-122.600;2023-02-11T18:09:14;7.20;1.00
1361;DHT22;674;45.552;-122.600;2023-02-11T18:11:42;7.20;1.00
1361;DHT22;674;45.552;-122.600;2023-02-11T18:14:11;7.10;1.00
1361;DHT22;674;45.552;-122.600;2023-02-11T18:16:39;7.30;1.00
1361;DHT22;674;45.552;-122.600;2023-02-11T18:19:11;7.60;1.00
1361;DHT22;674;45.552;-122.600;2023-02-11T18:21:40;7.60;1.00
1361;DHT22;674;45.552;-122.600;2023-02-11T18:24:09;7.80;1.00
1361;DHT22;674;45.552;-122.600;2023-02-11T18:26:38;7.80;1.00
1361;DHT22;674;45.552;-122.600;2023-02-11T18:29:06;8.00;1.00
1361;DHT22;674;45.552;-122.600;2023-02-11T18:31:35;8.10;1.00
1361;DHT22;674;45.552;-122.600;2023-02-11T18:34:05;8.20;1.00
1361;DHT22;674;45.552;-122.600;2023-02-11T18:36:34;8.30;1.00
1361;DHT22;674;45.552;-122.600;2023-02-11T18:39:03;8.30;1.00
1361;DHT22;674;45.552;-122.600;2023-02-11T18:41:32;8.40;1.00
1361;DHT22;674;45.552;-122.600;2023-02-11T18:44:01;8.30;1.00
1361;DHT22;674;45.552;-122.600;2023-02-11T18:46:31;8.60;1.00
1361;DHT22;674;45.552;-122.600;2023-02-11T18:49:00;8.80;1.00
1361;DHT22;674;45.552;-122.600;2023-02-11T18:51:28;9.10;1.00
1361;DHT22;674;45.552;-122.600;2023-02-11T18:53:59;9.00;1.00
1361;DHT22;674;45.552;-122.600;2023-02-11T18:56:28;9.00;1.00
1361;DHT22;674;45.552;-122.600;2023-02-11T18:58:57;9.10;1.00
1361;DHT22;674;45.552;-122.600;2023-02-11T19:01:28;9.30;1.00
1361;DHT22;674;45.552;-122.600;2023-02-11T19:03:59;9.50;1.00
1361;DHT22;674;45.552;-122.600;2023-02-11T19:06:33;9.30;1.00